Observation data for Jayton on 07/05/2020      Previous  Date       Current Mesonet Observations  Soil Data  Daily Summary Page  Observations in Plain Language
KJTS 050500Z 02003KT 25/19 A2992 RMK A01 T02530192  RH  073%=      5-min Rain = 0
KJTS 050505Z 02004KT 25/19 A2992 RMK A01 T02520192  RH  073%=      5-min Rain = 0
KJTS 050510Z 03004KT 25/19 A2992 RMK A01 T02520192  RH  073%=      5-min Rain = 0
KJTS 050515Z 03004KT 25/19 A2992 RMK A01 T02520191  RH  073%=      5-min Rain = 0
KJTS 050520Z 03004KT 25/19 A2992 RMK A01 T02520191  RH  073%=      5-min Rain = 0
KJTS 050525Z 03003KT 25/19 A2992 RMK A01 T02500191  RH  074%=      5-min Rain = 0
KJTS 050530Z 02003KT 25/19 A2992 RMK A01 T02480191  RH  075%=      5-min Rain = 0
KJTS 050535Z 01003KT 25/19 A2992 RMK A01 T02460191  RH  075%=      5-min Rain = 0
KJTS 050540Z 00003KT 24/19 A2992 RMK A01 T02410190  RH  077%=      5-min Rain = 0
KJTS 050545Z 00004KT 24/19 A2992 RMK A01 T02400190  RH  078%=      5-min Rain = 0
KJTS 050550Z 36004KT 24/19 A2992 RMK A01 T02390190  RH  078%=      5-min Rain = 0
KJTS 050555Z 00004KT 24/19 A2992 RMK A01 T02380190  RH  079%=      5-min Rain = 0
KJTS 050600Z 01004KT 24/19 A2992 RMK A01 T02390189  RH  078%=      5-min Rain = 0
KJTS 050605Z 02004KT 24/19 A2992 RMK A01 T02400188  RH  077%=      5-min Rain = 0
KJTS 050610Z 02002KT 24/19 A2992 RMK A01 T02400188  RH  077%=      5-min Rain = 0
KJTS 050615Z 02003KT 24/19 A2992 RMK A01 T02390189  RH  078%=      5-min Rain = 0
KJTS 050620Z 01003KT 24/19 A2992 RMK A01 T02380189  RH  078%=      5-min Rain = 0
KJTS 050625Z 01003KT 24/19 A2992 RMK A01 T02360189  RH  079%=      5-min Rain = 0
KJTS 050630Z 01004KT 24/19 A2992 RMK A01 T02350189  RH  080%=      5-min Rain = 0
KJTS 050635Z 02004KT 24/19 A2992 RMK A01 T02370188  RH  078%=      5-min Rain = 0
KJTS 050640Z 02004KT 24/19 A2992 RMK A01 T02400187  RH  076%=      5-min Rain = 0
KJTS 050645Z 02004KT 24/19 A2992 RMK A01 T02410186  RH  075%=      5-min Rain = 0
KJTS 050650Z 02005KT 24/19 A2992 RMK A01 T02420185  RH  074%=      5-min Rain = 0
KJTS 050655Z 03006KT 24/18 A2992 RMK A01 T02430184  RH  073%=      5-min Rain = 0
KJTS 050700Z 03006KT 25/18 A2993 RMK A01 T02450183  RH  072%=      5-min Rain = 0
KJTS 050705Z 03007KT 25/18 A2993 RMK A01 T02450182  RH  072%=      5-min Rain = 0
KJTS 050710Z 03006KT 25/18 A2993 RMK A01 T02450182  RH  071%=      5-min Rain = 0
KJTS 050715Z 03007G12KT 25/18 A2993 RMK A01 T02450182  RH  071%=      5-min Rain = 0
KJTS 050720Z 03007G12KT 25/18 A2993 RMK A01 T02450181  RH  071%=      5-min Rain = 0
KJTS 050725Z 03006G11KT 24/18 A2993 RMK A01 T02440181  RH  071%=      5-min Rain = 0
KJTS 050730Z 03007KT 24/18 A2993 RMK A01 T02430180  RH  072%=      5-min Rain = 0
KJTS 050735Z 03006KT 24/18 A2993 RMK A01 T02420180  RH  072%=      5-min Rain = 0
KJTS 050740Z 03007G12KT 24/18 A2993 RMK A01 T02410180  RH  072%=      5-min Rain = 0
KJTS 050745Z 03008KT 24/18 A2993 RMK A01 T02410179  RH  072%=      5-min Rain = 0
KJTS 050750Z 03007KT 24/18 A2993 RMK A01 T02400179  RH  073%=      5-min Rain = 0
KJTS 050755Z 03007KT 24/18 A2993 RMK A01 T02390179  RH  073%=      5-min Rain = 0
KJTS 050800Z 03006KT 24/18 A2993 RMK A01 T02390179  RH  073%=      5-min Rain = 0
KJTS 050805Z 03007KT 24/18 A2993 RMK A01 T02380179  RH  073%=      5-min Rain = 0
KJTS 050810Z 03007KT 24/18 A2993 RMK A01 T02370179  RH  074%=      5-min Rain = 0
KJTS 050815Z 03007KT 24/18 A2993 RMK A01 T02370180  RH  074%=      5-min Rain = 0
KJTS 050820Z 03006KT 24/18 A2993 RMK A01 T02370180  RH  075%=      5-min Rain = 0
KJTS 050825Z 03005KT 24/18 A2993 RMK A01 T02360181  RH  075%=      5-min Rain = 0
KJTS 050830Z 02006KT 24/18 A2993 RMK A01 T02360182  RH  076%=      5-min Rain = 0
KJTS 050835Z 02005KT 24/18 A2993 RMK A01 T02360182  RH  076%=      5-min Rain = 0
KJTS 050840Z 01005KT 24/18 A2993 RMK A01 T02370183  RH  076%=      5-min Rain = 0
KJTS 050845Z 01006KT 24/18 A2993 RMK A01 T02370183  RH  076%=      5-min Rain = 0
KJTS 050850Z 00007KT 24/18 A2993 RMK A01 T02370183  RH  076%=      5-min Rain = 0
KJTS 050855Z 36010KT 24/18 A2994 RMK A01 T02380184  RH  076%=      5-min Rain = 0
KJTS 050900Z 33019G28KT 24/19 A2996 RMK A01 T02410188  RH  076%=      5-min Rain = 0
KJTS 050905Z 36015G34KT 25/19 A2996 RMK A01 T02540193  RH  073%=      5-min Rain = 0
KJTS 050910Z 35012KT 26/19 A2996 RMK A01 T02600193  RH  070%=      5-min Rain = 0
KJTS 050915Z 34017G23KT 25/20 A2998 RMK A01 T02470202  RH  080%=      5-min Rain = 0.02
KJTS 050920Z 35018G23KT 24/20 A2997 RMK A01 T02420203  RH  084%=      5-min Rain = 0.06
KJTS 050925Z 34017KT 24/20 A2998 RMK A01 T02410204  RH  085%=      5-min Rain = 0.01
KJTS 050930Z 34017G22KT 24/20 A2998 RMK A01 T02420204  RH  084%=      5-min Rain = 0
KJTS 050935Z 35017G23KT 24/20 A2998 RMK A01 T02420201  RH  082%=      5-min Rain = 0
KJTS 050940Z 35016G22KT 24/20 A2997 RMK A01 T02410199  RH  082%=      5-min Rain = 0
KJTS 050945Z 35016G23KT 24/20 A2997 RMK A01 T02370197  RH  083%=      5-min Rain = 0
KJTS 050950Z 34017G24KT 23/20 A2998 RMK A01 T02340195  RH  083%=      5-min Rain = 0.01
KJTS 050955Z 35015G21KT 23/19 A2998 RMK A01 T02320193  RH  083%=      5-min Rain = 0.01
KJTS 051000Z 34015G20KT 23/19 A2998 RMK A01 T02300191  RH  083%=      5-min Rain = 0
KJTS 051005Z 34014G20KT 23/19 A2998 RMK A01 T02290190  RH  083%=      5-min Rain = 0
KJTS 051010Z 34013G18KT 23/19 A2998 RMK A01 T02280189  RH  083%=      5-min Rain = 0
KJTS 051015Z 34013KT 23/19 A2998 RMK A01 T02290187  RH  082%=      5-min Rain = 0
KJTS 051020Z 34013G18KT 23/19 A2998 RMK A01 T02290186  RH  081%=      5-min Rain = 0
KJTS 051025Z 35012G19KT 23/19 A2998 RMK A01 T02280187  RH  082%=      5-min Rain = 0
KJTS 051030Z 35010G15KT 23/19 A2998 RMK A01 T02260187  RH  083%=      5-min Rain = 0
KJTS 051035Z 35010KT 23/19 A2998 RMK A01 T02250189  RH  084%=      5-min Rain = 0.01
KJTS 051040Z 00010KT 23/19 A2998 RMK A01 T02250189  RH  084%=      5-min Rain = 0
KJTS 051045Z 00011KT 23/19 A2998 RMK A01 T02250188  RH  084%=      5-min Rain = 0
KJTS 051050Z 36011KT 23/19 A2998 RMK A01 T02250188  RH  084%=      5-min Rain = 0
KJTS 051055Z 00010KT 22/19 A2998 RMK A01 T02240188  RH  085%=      5-min Rain = 0
KJTS 051100Z 00010KT 22/19 A2997 RMK A01 T02240187  RH  084%=      5-min Rain = 0
KJTS 051105Z 00009KT 22/19 A2997 RMK A01 T02240187  RH  084%=      5-min Rain = 0
KJTS 051110Z 00010KT 22/19 A2997 RMK A01 T02230186  RH  084%=      5-min Rain = 0
KJTS 051115Z 00010KT 22/19 A2996 RMK A01 T02230186  RH  084%=      5-min Rain = 0
KJTS 051120Z 01009KT 22/19 A2996 RMK A01 T02220187  RH  085%=      5-min Rain = 0
KJTS 051125Z 01011G16KT 22/19 A2996 RMK A01 T02210186  RH  085%=      5-min Rain = 0
KJTS 051130Z 01011KT 22/19 A2995 RMK A01 T02210185  RH  084%=      5-min Rain = 0
KJTS 051135Z 01010KT 22/19 A2995 RMK A01 T02210185  RH  084%=      5-min Rain = 0
KJTS 051140Z 02007G12KT 22/18 A2995 RMK A01 T02220184  RH  084%=      5-min Rain = 0
KJTS 051145Z 02006G11KT 22/18 A2995 RMK A01 T02230183  RH  083%=      5-min Rain = 0
KJTS 051150Z 01007KT 22/18 A2995 RMK A01 T02230184  RH  083%=      5-min Rain = 0
KJTS 051155Z 02006KT 22/18 A2995 RMK A01 T02230184  RH  083%=      5-min Rain = 0
KJTS 051200Z 03006KT 22/18 A2995 RMK A01 T02230184  RH  083%=      5-min Rain = 0
KJTS 051205Z 04006KT 22/18 A2994 RMK A01 T02230184  RH  083%=      5-min Rain = 0
KJTS 051210Z 05007KT 22/18 A2994 RMK A01 T02220183  RH  083%=      5-min Rain = 0
KJTS 051215Z 05008KT 22/18 A2993 RMK A01 T02220183  RH  083%=      5-min Rain = 0
KJTS 051220Z 05007KT 22/18 A2993 RMK A01 T02220183  RH  083%=      5-min Rain = 0
KJTS 051225Z 07008KT 22/19 A2993 RMK A01 T02220185  RH  084%=      5-min Rain = 0
KJTS 051230Z 08009KT 22/19 A2993 RMK A01 T02210187  RH  085%=      5-min Rain = 0
KJTS 051235Z 09011KT 22/19 A2992 RMK A01 T02210188  RH  086%=      5-min Rain = 0
KJTS 051240Z 09012KT 22/19 A2992 RMK A01 T02210189  RH  087%=      5-min Rain = 0
KJTS 051245Z 09012KT 22/19 A2991 RMK A01 T02210190  RH  087%=      5-min Rain = 0
KJTS 051250Z 09011KT 22/19 A2991 RMK A01 T02220190  RH  086%=      5-min Rain = 0
KJTS 051255Z 09011KT 22/19 A2992 RMK A01 T02240189  RH  085%=      5-min Rain = 0
KJTS 051300Z 07007KT 22/19 A2992 RMK A01 T02240189  RH  085%=      5-min Rain = 0
KJTS 051305Z 05005KT 23/19 A2993 RMK A01 T02260188  RH  084%=      5-min Rain = 0
KJTS 051310Z 01005KT 23/19 A2994 RMK A01 T02270190  RH  084%=      5-min Rain = 0
KJTS 051315Z 00007KT 23/19 A2995 RMK A01 T02280190  RH  084%=      5-min Rain = 0
KJTS 051320Z 35008KT 23/19 A2996 RMK A01 T02290191  RH  084%=      5-min Rain = 0
KJTS 051325Z 35008KT 23/19 A2997 RMK A01 T02310191  RH  082%=      5-min Rain = 0
KJTS 051330Z 36008KT 24/19 A2997 RMK A01 T02360192  RH  081%=      5-min Rain = 0
KJTS 051335Z 01009KT 24/19 A2997 RMK A01 T02390191  RH  079%=      5-min Rain = 0
KJTS 051340Z 00010G15KT 24/19 A2997 RMK A01 T02390189  RH  078%=      5-min Rain = 0
KJTS 051345Z 01009G14KT 24/19 A2997 RMK A01 T02370188  RH  078%=      5-min Rain = 0
KJTS 051350Z 02007KT 24/19 A2997 RMK A01 T02360188  RH  079%=      5-min Rain = 0
KJTS 051355Z 03007KT 24/19 A2998 RMK A01 T02360188  RH  079%=      5-min Rain = 0
KJTS 051400Z 02006KT 24/19 A2998 RMK A01 T02360188  RH  079%=      5-min Rain = 0
KJTS 051405Z 02007G12KT 24/19 A2998 RMK A01 T02360187  RH  078%=      5-min Rain = 0
KJTS 051410Z 02006G11KT 24/19 A2999 RMK A01 T02370186  RH  078%=      5-min Rain = 0
KJTS 051415Z 03008KT 24/19 A2999 RMK A01 T02370185  RH  077%=      5-min Rain = 0
KJTS 051420Z 04008KT 24/19 A2999 RMK A01 T02380185  RH  076%=      5-min Rain = 0
KJTS 051425Z 03008KT 24/19 A2999 RMK A01 T02380185  RH  076%=      5-min Rain = 0
KJTS 051430Z 04007KT 24/18 A2999 RMK A01 T02390184  RH  075%=      5-min Rain = 0
KJTS 051435Z 04007KT 24/19 A2999 RMK A01 T02410186  RH  075%=      5-min Rain = 0
KJTS 051440Z 03007KT 24/19 A2999 RMK A01 T02430185  RH  074%=      5-min Rain = 0
KJTS 051445Z 04007KT 24/19 A30 RMK A01 T02430186  RH  075%=      5-min Rain = 0
KJTS 051450Z 05007KT 24/19 A30 RMK A01 T02420186  RH  075%=      5-min Rain = 0
KJTS 051455Z 06008KT 24/19 A2999 RMK A01 T02410188  RH  076%=      5-min Rain = 0
KJTS 051500Z 05008KT 24/19 A2999 RMK A01 T02400187  RH  076%=      5-min Rain = 0
KJTS 051505Z 05007KT 24/19 A2999 RMK A01 T02400188  RH  077%=      5-min Rain = 0
KJTS 051510Z 05007KT 24/19 A2999 RMK A01 T02410189  RH  077%=      5-min Rain = 0
KJTS 051515Z 06006KT 25/19 A2999 RMK A01 T02480193  RH  076%=      5-min Rain = 0
KJTS 051520Z 06006KT 25/19 A2999 RMK A01 T02490193  RH  075%=      5-min Rain = 0
KJTS 051525Z 07006KT 25/19 A30 RMK A01 T02450190  RH  076%=      5-min Rain = 0
KJTS 051530Z 06005KT 25/19 A2999 RMK A01 T02460192  RH  076%=      5-min Rain = 0
KJTS 051535Z 05004KT 25/19 A30 RMK A01 T02470191  RH  075%=      5-min Rain = 0
KJTS 051540Z 08005KT 25/20 A30 RMK A01 T02520195  RH  075%=      5-min Rain = 0
KJTS 051545Z 09007KT 26/19 A2999 RMK A01 T02580194  RH  072%=      5-min Rain = 0
KJTS 051550Z 08008KT 26/19 A2999 RMK A01 T02610194  RH  070%=      5-min Rain = 0
KJTS 051555Z 07006KT 26/19 A2999 RMK A01 T02610193  RH  070%=      5-min Rain = 0
KJTS 051600Z 08006KT 26/20 A2999 RMK A01 T02640197  RH  070%=      5-min Rain = 0
KJTS 051605Z 08007KT 27/20 A2999 RMK A01 T02690196  RH  068%=      5-min Rain = 0
KJTS 051610Z 06008KT 27/19 A2999 RMK A01 T02670193  RH  068%=      5-min Rain = 0
KJTS 051615Z 07008KT 27/20 A2999 RMK A01 T02710195  RH  067%=      5-min Rain = 0
KJTS 051620Z 07007KT 27/19 A2999 RMK A01 T02690192  RH  066%=      5-min Rain = 0
KJTS 051625Z 06007G12KT 27/19 A2999 RMK A01 T02710192  RH  065%=      5-min Rain = 0
KJTS 051630Z 07009KT 27/19 A2999 RMK A01 T02740192  RH  065%=      5-min Rain = 0
KJTS 051635Z 07009KT 28/19 A2999 RMK A01 T02750191  RH  064%=      5-min Rain = 0
KJTS 051640Z 07007KT 27/19 A2999 RMK A01 T02740192  RH  064%=      5-min Rain = 0
KJTS 051645Z 08006G11KT 28/19 A2999 RMK A01 T02790194  RH  063%=      5-min Rain = 0
KJTS 051650Z 09007KT 28/20 A2999 RMK A01 T02810195  RH  063%=      5-min Rain = 0
KJTS 051655Z 10008KT 28/19 A2999 RMK A01 T02820192  RH  062%=      5-min Rain = 0
KJTS 051700Z 08009KT 28/19 A2999 RMK A01 T02840193  RH  061%=      5-min Rain = 0
KJTS 051705Z 08008KT 28/19 A2999 RMK A01 T02830194  RH  062%=      5-min Rain = 0
KJTS 051710Z 08008G13KT 28/19 A2999 RMK A01 T02810193  RH  062%=      5-min Rain = 0
KJTS 051715Z 08007G12KT 28/19 A2999 RMK A01 T02820194  RH  062%=      5-min Rain = 0
KJTS 051720Z 09008KT 29/20 A2999 RMK A01 T02860196  RH  062%=      5-min Rain = 0
KJTS 051725Z 08007KT 29/20 A2999 RMK A01 T02880197  RH  061%=      5-min Rain = 0
KJTS 051730Z 08006KT 29/19 A2999 RMK A01 T02900194  RH  059%=      5-min Rain = 0
KJTS 051735Z 08008KT 29/19 A2999 RMK A01 T02910194  RH  059%=      5-min Rain = 0
KJTS 051740Z 08007KT 29/19 A2998 RMK A01 T02910190  RH  058%=      5-min Rain = 0
KJTS 051745Z 10008KT 30/20 A2998 RMK A01 T02960196  RH  058%=      5-min Rain = 0
KJTS 051750Z 10009KT 29/19 A2998 RMK A01 T02940192  RH  057%=      5-min Rain = 0
KJTS 051755Z 10008G13KT 29/19 A2998 RMK A01 T02930194  RH  058%=      5-min Rain = 0
KJTS 051800Z 09008KT 30/19 A2998 RMK A01 T02950194  RH  058%=      5-min Rain = 0
KJTS 051805Z 09007KT 30/20 A2998 RMK A01 T03000197  RH  057%=      5-min Rain = 0
KJTS 051810Z 09007KT 30/20 A2998 RMK A01 T03000195  RH  056%=      5-min Rain = 0
KJTS 051815Z 09005KT 30/19 A2997 RMK A01 T02990193  RH  056%=      5-min Rain = 0
KJTS 051820Z 08007G13KT 30/20 A2997 RMK A01 T03040197  RH  056%=      5-min Rain = 0
KJTS 051825Z 07007G13KT 31/19 A2997 RMK A01 T03050192  RH  054%=      5-min Rain = 0
KJTS 051830Z 08007G13KT 31/19 A2997 RMK A01 T03060191  RH  053%=      5-min Rain = 0
KJTS 051835Z 05007KT 31/19 A2996 RMK A01 T03070188  RH  052%=      5-min Rain = 0
KJTS 051840Z 08007KT 31/19 A2996 RMK A01 T03100189  RH  051%=      5-min Rain = 0
KJTS 051845Z 07008KT 31/19 A2996 RMK A01 T03100187  RH  051%=      5-min Rain = 0
KJTS 051850Z 07007KT 31/19 A2996 RMK A01 T03100186  RH  050%=      5-min Rain = 0
KJTS 051855Z 07005G10KT 31/19 A2995 RMK A01 T03090186  RH  050%=      5-min Rain = 0
KJTS 051900Z 10007KT 31/19 A2995 RMK A01 T03110187  RH  050%=      5-min Rain = 0
KJTS 051905Z 10006KT 32/19 A2995 RMK A01 T03160191  RH  050%=      5-min Rain = 0
KJTS 051910Z 10005KT 31/19 A2995 RMK A01 T03140187  RH  049%=      5-min Rain = 0
KJTS 051915Z 10007G14KT 32/19 A2995 RMK A01 T03170191  RH  050%=      5-min Rain = 0
KJTS 051920Z 11009KT 32/19 A2995 RMK A01 T03190190  RH  049%=      5-min Rain = 0
KJTS 051925Z 12007KT 32/19 A2994 RMK A01 T03180185  RH  048%=      5-min Rain = 0
KJTS 051930Z 12006KT 32/19 A2994 RMK A01 T03230190  RH  048%=      5-min Rain = 0
KJTS 051935Z 10008KT 32/19 A2994 RMK A01 T03230188  RH  048%=      5-min Rain = 0
KJTS 051940Z 10007KT 32/19 A2994 RMK A01 T03210189  RH  048%=      5-min Rain = 0
KJTS 051945Z 11006G11KT 32/19 A2994 RMK A01 T03180188  RH  049%=      5-min Rain = 0
KJTS 051950Z 10007G13KT 32/19 A2994 RMK A01 T03200189  RH  048%=      5-min Rain = 0
KJTS 051955Z 09006KT 33/19 A2993 RMK A01 T03250192  RH  048%=      5-min Rain = 0
KJTS 052000Z 06006KT 33/19 A2993 RMK A01 T03260189  RH  047%=      5-min Rain = 0
KJTS 052005Z 07007G14KT 32/19 A2993 RMK A01 T03230187  RH  047%=      5-min Rain = 0
KJTS 052010Z 10007KT 33/19 A2993 RMK A01 T03250189  RH  047%=      5-min Rain = 0
KJTS 052015Z 10007KT 32/19 A2993 RMK A01 T03240188  RH  047%=      5-min Rain = 0
KJTS 052020Z 09006G11KT 32/19 A2992 RMK A01 T03240189  RH  047%=      5-min Rain = 0
KJTS 052025Z 11009KT 33/19 A2992 RMK A01 T03290190  RH  047%=      5-min Rain = 0
KJTS 052030Z 12005G10KT 33/19 A2992 RMK A01 T03260187  RH  046%=      5-min Rain = 0
KJTS 052035Z 12007KT 33/19 A2992 RMK A01 T03290190  RH  046%=      5-min Rain = 0
KJTS 052040Z 08006KT 33/19 A2992 RMK A01 T03300187  RH  045%=      5-min Rain = 0
KJTS 052045Z 11007KT 33/19 A2992 RMK A01 T03300188  RH  046%=      5-min Rain = 0
KJTS 052050Z 12004G11KT 33/18 A2991 RMK A01 T03290184  RH  045%=      5-min Rain = 0
KJTS 052055Z 12005KT 33/19 A2991 RMK A01 T03290188  RH  046%=      5-min Rain = 0
KJTS 052100Z 09007KT 33/19 A2991 RMK A01 T03340190  RH  045%=      5-min Rain = 0
KJTS 052105Z 06006KT 33/19 A2991 RMK A01 T03320185  RH  044%=      5-min Rain = 0
KJTS 052110Z 10007G12KT 33/19 A2991 RMK A01 T03320189  RH  045%=      5-min Rain = 0
KJTS 052115Z 13004G9KT 33/19 A2991 RMK A01 T03320186  RH  044%=      5-min Rain = 0
KJTS 052120Z 12008G13KT 34/19 A299 RMK A01 T03360189  RH  044%=      5-min Rain = 0
KJTS 052125Z 11005KT 33/18 A299 RMK A01 T03310184  RH  044%=      5-min Rain = 0
KJTS 052130Z 11010KT 33/19 A299 RMK A01 T03340188  RH  044%=      5-min Rain = 0
KJTS 052135Z 14007KT 33/18 A299 RMK A01 T03330184  RH  044%=      5-min Rain = 0
KJTS 052140Z 10007KT 33/18 A299 RMK A01 T03330183  RH  043%=      5-min Rain = 0
KJTS 052145Z 14005KT 34/19 A299 RMK A01 T03350185  RH  043%=      5-min Rain = 0
KJTS 052150Z 15007KT 34/18 A299 RMK A01 T03370182  RH  042%=      5-min Rain = 0
KJTS 052155Z 11006KT 34/18 A299 RMK A01 T03380183  RH  042%=      5-min Rain = 0
KJTS 052200Z 13006KT 34/18 A2989 RMK A01 T03370182  RH  042%=      5-min Rain = 0
KJTS 052205Z 15008KT 34/18 A2989 RMK A01 T03390180  RH  041%=      5-min Rain = 0
KJTS 052210Z 08007KT 34/18 A2989 RMK A01 T03370179  RH  041%=      5-min Rain = 0
KJTS 052215Z 07003KT 33/18 A2989 RMK A01 T03330175  RH  041%=      5-min Rain = 0
KJTS 052220Z 11007G14KT 34/18 A2988 RMK A01 T03360180  RH  042%=      5-min Rain = 0
KJTS 052225Z 13007KT 34/18 A2988 RMK A01 T03360179  RH  042%=      5-min Rain = 0
KJTS 052230Z 12002KT 34/18 A2988 RMK A01 T03350178  RH  041%=      5-min Rain = 0
KJTS 052235Z 17004KT 34/18 A2987 RMK A01 T03400176  RH  040%=      5-min Rain = 0
KJTS 052240Z 12007KT 34/18 A2987 RMK A01 T03390178  RH  041%=      5-min Rain = 0
KJTS 052245Z 14006KT 34/18 A2987 RMK A01 T03370176  RH  041%=      5-min Rain = 0
KJTS 052250Z 14006KT 34/18 A2987 RMK A01 T03390178  RH  041%=      5-min Rain = 0
KJTS 052255Z 11006KT 34/18 A2987 RMK A01 T03380176  RH  040%=      5-min Rain = 0
KJTS 052300Z 10007KT 34/18 A2986 RMK A01 T03360175  RH  041%=      5-min Rain = 0
KJTS 052305Z 10006KT 34/18 A2986 RMK A01 T03360179  RH  041%=      5-min Rain = 0
KJTS 052310Z 12007KT 34/18 A2986 RMK A01 T03360180  RH  042%=      5-min Rain = 0
KJTS 052315Z 14007KT 34/18 A2986 RMK A01 T03370179  RH  041%=      5-min Rain = 0
KJTS 052320Z 13007KT 34/18 A2986 RMK A01 T03360175  RH  040%=      5-min Rain = 0
KJTS 052325Z 13005KT 34/17 A2985 RMK A01 T03350174  RH  040%=      5-min Rain = 0
KJTS 052330Z 15004KT 34/18 A2985 RMK A01 T03370176  RH  041%=      5-min Rain = 0
KJTS 052335Z 16006KT 34/18 A2985 RMK A01 T03380179  RH  041%=      5-min Rain = 0
KJTS 052340Z 14007KT 34/18 A2985 RMK A01 T03370180  RH  042%=      5-min Rain = 0
KJTS 052345Z 12009KT 33/18 A2985 RMK A01 T03340180  RH  042%=      5-min Rain = 0
KJTS 052350Z 12007KT 33/18 A2985 RMK A01 T03330180  RH  042%=      5-min Rain = 0
KJTS 052355Z 13006KT 33/18 A2985 RMK A01 T03330177  RH  042%=      5-min Rain = 0
KJTS 060000Z 13005KT 33/18 A2985 RMK A01 T03330177  RH  042%=      5-min Rain = 0
KJTS 060005Z 10005KT 33/18 A2985 RMK A01 T03340178  RH  042%=      5-min Rain = 0
KJTS 060010Z 11007KT 33/18 A2985 RMK A01 T03320179  RH  042%=      5-min Rain = 0
KJTS 060015Z 11007KT 33/18 A2985 RMK A01 T03310176  RH  042%=      5-min Rain = 0
KJTS 060020Z 11007KT 33/18 A2985 RMK A01 T03300176  RH  042%=      5-min Rain = 0
KJTS 060025Z 10007KT 33/18 A2985 RMK A01 T03300175  RH  042%=      5-min Rain = 0
KJTS 060030Z 11008KT 33/18 A2985 RMK A01 T03290179  RH  043%=      5-min Rain = 0
KJTS 060035Z 11007KT 33/18 A2985 RMK A01 T03280182  RH  044%=      5-min Rain = 0
KJTS 060040Z 11007KT 33/18 A2985 RMK A01 T03270183  RH  045%=      5-min Rain = 0
KJTS 060045Z 11008KT 33/18 A2986 RMK A01 T03260180  RH  044%=      5-min Rain = 0
KJTS 060050Z 10007KT 32/18 A2986 RMK A01 T03240178  RH  044%=      5-min Rain = 0
KJTS 060055Z 09007KT 32/18 A2986 RMK A01 T03240177  RH  044%=      5-min Rain = 0
KJTS 060100Z 10007KT 32/18 A2986 RMK A01 T03220179  RH  045%=      5-min Rain = 0
KJTS 060105Z 10007KT 32/18 A2986 RMK A01 T03180178  RH  046%=      5-min Rain = 0
KJTS 060110Z 09006KT 32/18 A2986 RMK A01 T03150176  RH  046%=      5-min Rain = 0
KJTS 060115Z 08006KT 31/18 A2987 RMK A01 T03130177  RH  047%=      5-min Rain = 0
KJTS 060120Z 06004KT 31/18 A2987 RMK A01 T03100180  RH  048%=      5-min Rain = 0
KJTS 060125Z 07005KT 31/18 A2987 RMK A01 T03080181  RH  049%=      5-min Rain = 0
KJTS 060130Z 07005KT 31/18 A2987 RMK A01 T03050183  RH  051%=      5-min Rain = 0
KJTS 060135Z 07005KT 30/18 A2987 RMK A01 T03030184  RH  052%=      5-min Rain = 0
KJTS 060140Z 08005KT 30/19 A2987 RMK A01 T03020185  RH  052%=      5-min Rain = 0
KJTS 060145Z 08005KT 30/19 A2987 RMK A01 T03010185  RH  053%=      5-min Rain = 0
KJTS 060150Z 09005KT 30/19 A2987 RMK A01 T02970188  RH  055%=      5-min Rain = 0
KJTS 060155Z 10007KT 29/19 A2987 RMK A01 T02920190  RH  057%=      5-min Rain = 0
KJTS 060200Z 10007KT 29/19 A2987 RMK A01 T02890189  RH  058%=      5-min Rain = 0
KJTS 060205Z 10007KT 29/19 A2987 RMK A01 T02890188  RH  058%=      5-min Rain = 0
KJTS 060210Z 10007KT 29/19 A2988 RMK A01 T02890186  RH  057%=      5-min Rain = 0
KJTS 060215Z 10007KT 29/19 A2988 RMK A01 T02890185  RH  056%=      5-min Rain = 0
KJTS 060220Z 11007KT 29/19 A2988 RMK A01 T02890185  RH  056%=      5-min Rain = 0
KJTS 060225Z 11006KT 29/19 A2989 RMK A01 T02860186  RH  058%=      5-min Rain = 0
KJTS 060230Z 11007KT 28/19 A2989 RMK A01 T02840186  RH  059%=      5-min Rain = 0
KJTS 060235Z 11007KT 28/19 A2988 RMK A01 T02840186  RH  059%=      5-min Rain = 0
KJTS 060240Z 11007KT 28/19 A2989 RMK A01 T02830186  RH  059%=      5-min Rain = 0
KJTS 060245Z 11007KT 28/19 A2988 RMK A01 T02820187  RH  059%=      5-min Rain = 0
KJTS 060250Z 11007KT 28/19 A2988 RMK A01 T02810187  RH  060%=      5-min Rain = 0
KJTS 060255Z 10007KT 28/19 A2988 RMK A01 T02800186  RH  060%=      5-min Rain = 0
KJTS 060300Z 10007KT 28/19 A2988 RMK A01 T02820185  RH  059%=      5-min Rain = 0
KJTS 060305Z 11007KT 28/19 A2988 RMK A01 T02810185  RH  059%=      5-min Rain = 0
KJTS 060310Z 11006KT 28/19 A2988 RMK A01 T02780186  RH  061%=      5-min Rain = 0
KJTS 060315Z 11006KT 28/19 A2989 RMK A01 T02760187  RH  062%=      5-min Rain = 0
KJTS 060320Z 11007KT 27/19 A2989 RMK A01 T02720188  RH  063%=      5-min Rain = 0
KJTS 060325Z 11007KT 27/19 A2989 RMK A01 T02710188  RH  064%=      5-min Rain = 0
KJTS 060330Z 11007KT 27/19 A2989 RMK A01 T02700188  RH  064%=      5-min Rain = 0
KJTS 060335Z 10007KT 27/19 A299 RMK A01 T02720187  RH  063%=      5-min Rain = 0
KJTS 060340Z 10006KT 27/19 A299 RMK A01 T02730187  RH  063%=      5-min Rain = 0
KJTS 060345Z 10006KT 27/19 A299 RMK A01 T02720188  RH  063%=      5-min Rain = 0
KJTS 060350Z 09006KT 27/19 A299 RMK A01 T02700188  RH  064%=      5-min Rain = 0
KJTS 060355Z 09007KT 27/19 A299 RMK A01 T02710187  RH  064%=      5-min Rain = 0
KJTS 060400Z 09006KT 27/19 A299 RMK A01 T02700187  RH  064%=      5-min Rain = 0
KJTS 060405Z 09006KT 27/19 A299 RMK A01 T02690188  RH  065%=      5-min Rain = 0
KJTS 060410Z 09007KT 27/19 A299 RMK A01 T02670188  RH  065%=      5-min Rain = 0
KJTS 060415Z 09007KT 27/19 A299 RMK A01 T02660187  RH  065%=      5-min Rain = 0
KJTS 060420Z 07007KT 27/19 A2991 RMK A01 T02690185  RH  064%=      5-min Rain = 0
KJTS 060425Z 06007KT 27/19 A2991 RMK A01 T02670186  RH  064%=      5-min Rain = 0
KJTS 060430Z 07007KT 27/19 A2991 RMK A01 T02670186  RH  064%=      5-min Rain = 0
KJTS 060435Z 05006KT 27/19 A2991 RMK A01 T02680185  RH  064%=      5-min Rain = 0
KJTS 060440Z 06006KT 27/19 A2991 RMK A01 T02660185  RH  065%=      5-min Rain = 0
KJTS 060445Z 06007KT 27/19 A2991 RMK A01 T02650186  RH  065%=      5-min Rain = 0
KJTS 060450Z 07008KT 26/19 A2991 RMK A01 T02620186  RH  066%=      5-min Rain = 0
KJTS 060455Z 08009KT 26/19 A2991 RMK A01 T02630186  RH  066%=      5-min Rain = 0

Page generated in 0.0095 seconds.